Time;durP1;ratioP1;P1;durP2;ratioP2;P2;SDS_P1;SDS_P2;PMS_P1;PMS_P2;Temp;Humidity;BMP_temperature;BMP_pressure;BME280_temperature;BME280_humidity;BME280_pressure;Samples;Min_cycle;Max_cycle;Signal;HPM_P1;HPM_P2
2023/03/06 00:01:09;;;;;;;11.98;8.57;;;;;;;2.00;82.21;62200.59;5038871;28;20539;-78
2023/03/06 00:03:37;;;;;;;18.38;9.77;;;;;;;2.08;81.56;62216.84;5045262;28;20218;-79
2023/03/06 00:06:05;;;;;;;14.93;9.63;;;;;;;2.04;82.10;62205.19;5042094;28;20213;-79
2023/03/06 00:08:31;;;;;;;12.93;9.00;;;;;;;2.05;82.01;62208.22;5045915;28;20263;-79
2023/03/06 00:10:59;;;;;;;14.18;9.32;;;;;;;1.96;83.14;62197.00;5047517;28;20384;-78
2023/03/06 00:13:28;;;;;;;17.63;8.82;;;;;;;1.91;83.50;62196.38;5051887;28;20194;-80
2023/03/06 00:15:58;;;;;;;16.67;9.27;;;;;;;1.95;82.73;62197.97;5047609;28;20261;-79
2023/03/06 00:18:25;;;;;;;14.45;8.98;;;;;;;1.96;82.27;62198.97;5049499;28;20202;-79
2023/03/06 00:20:54;;;;;;;15.68;9.80;;;;;;;1.99;81.30;62205.09;5045198;28;20230;-79
2023/03/06 00:23:20;;;;;;;15.85;9.55;;;;;;;1.65;84.06;62167.16;5048842;28;20534;-79
2023/03/06 00:25:48;;;;;;;14.93;8.57;;;;;;;1.69;84.64;62174.28;5047985;28;20206;-79
2023/03/06 00:28:16;;;;;;;14.15;8.38;;;;;;;1.70;84.94;62175.31;5052822;28;20268;-79
2023/03/06 00:30:44;;;;;;;13.43;10.27;;;;;;;1.64;84.98;62168.66;5040378;28;20249;-79
2023/03/06 00:33:12;;;;;;;14.88;9.80;;;;;;;1.65;84.94;62167.16;5047590;28;20261;-78
2023/03/06 00:35:39;;;;;;;13.90;9.65;;;;;;;1.66;84.77;62170.69;5047932;28;20202;-78
2023/03/06 00:38:07;;;;;;;14.38;9.40;;;;;;;1.61;85.59;62160.53;5049317;28;20225;-79
2023/03/06 00:40:34;;;;;;;14.10;9.40;;;;;;;1.54;86.47;62153.34;5048742;28;20203;-79
2023/03/06 00:43:01;;;;;;;18.25;10.52;;;;;;;1.52;86.58;62161.84;5049949;28;20272;-78
2023/03/06 00:45:28;;;;;;;13.68;10.30;;;;;;;1.42;86.98;62141.56;5050048;28;20621;-78
2023/03/06 00:47:55;;;;;;;13.73;9.77;;;;;;;1.34;88.62;62137.84;5047050;28;20593;-80
2023/03/06 00:50:22;;;;;;;12.98;9.00;;;;;;;1.43;88.10;62150.13;5029271;28;20427;-78
2023/03/06 00:52:49;;;;;;;15.18;10.05;;;;;;;1.46;88.55;62153.19;5043523;28;20281;-78
2023/03/06 00:55:17;;;;;;;15.48;9.80;;;;;;;1.58;88.27;62160.50;5049933;28;20202;-79
2023/03/06 00:57:44;;;;;;;13.98;9.32;;;;;;;1.71;85.25;62173.81;5035912;28;20223;-78
2023/03/06 01:00:13;;;;;;;12.73;9.57;;;;;;;1.82;82.88;62184.59;5043987;28;20528;-81
2023/03/06 01:02:40;;;;;;;14.52;8.85;;;;;;;1.93;80.99;62200.94;5049022;28;20233;-79
2023/03/06 01:05:09;;;;;;;13.77;7.97;;;;;;;2.07;78.74;62213.28;5048283;28;20240;-78
2023/03/06 01:07:36;;;;;;;12.30;8.55;;;;;;;2.23;76.99;62234.75;5046010;28;20546;-78
2023/03/06 01:10:04;;;;;;;17.33;9.43;;;;;;;2.29;76.19;62233.41;5044641;28;20481;-78
2023/03/06 01:12:32;;;;;;;8.85;6.47;;;;;;;2.39;74.08;62240.63;5049330;28;20225;-77
2023/03/06 01:14:59;;;;;;;9.57;5.32;;;;;;;2.40;73.21;62241.16;5043219;28;20254;-75
2023/03/06 01:17:26;;;;;;;7.35;5.55;;;;;;;2.45;73.66;62246.28;5028243;28;20261;-76
2023/03/06 01:19:52;;;;;;;8.57;4.28;;;;;;;2.48;72.83;62257.41;5027566;28;20206;-78
2023/03/06 01:22:19;;;;;;;15.38;8.32;;;;;;;2.60;72.41;62264.72;5042645;28;20228;-78
2023/03/06 01:24:47;;;;;;;8.75;6.90;;;;;;;2.63;72.05;62269.78;5046583;28;20198;-77
2023/03/06 01:27:14;;;;;;;7.70;5.28;;;;;;;2.59;72.59;62260.66;5046820;28;20272;-78
2023/03/06 01:29:42;;;;;;;12.98;6.72;;;;;;;2.56;72.76;62262.59;5049408;28;20206;-79
2023/03/06 01:32:09;;;;;;;13.07;8.98;;;;;;;2.71;72.39;62276.00;5046779;28;20229;-79
2023/03/06 01:34:36;;;;;;;14.57;9.48;;;;;;;2.80;71.84;62284.75;5047577;28;20214;-79
2023/03/06 01:37:03;;;;;;;17.75;9.40;;;;;;;2.64;72.14;62268.31;5045156;28;20290;-79
2023/03/06 01:39:31;;;;;;;13.07;8.50;;;;;;;2.71;72.56;62281.03;5048201;28;20217;-79
2023/03/06 01:41:58;;;;;;;16.38;8.45;;;;;;;2.72;72.86;62279.56;5051012;28;20222;-79
2023/03/06 01:44:24;;;;;;;14.65;7.25;;;;;;;2.64;72.57;62268.31;5048525;28;20378;-77
2023/03/06 01:46:53;;;;;;;15.55;9.45;;;;;;;2.66;73.14;62270.88;5047127;28;20557;-78
2023/03/06 01:49:23;;;;;;;23.63;10.40;;;;;;;2.64;73.74;62268.81;5048279;28;20566;-79
2023/03/06 01:51:53;;;;;;;13.73;9.15;;;;;;;2.68;74.17;62272.41;5042655;28;20292;-77
2023/03/06 01:54:25;;;;;;;16.70;9.68;;;;;;;2.67;73.48;62271.91;5045217;28;20202;-79
2023/03/06 01:56:55;;;;;;;14.57;8.85;;;;;;;2.57;73.54;62263.63;5049918;28;20221;-79
2023/03/06 01:59:23;;;;;;;12.95;9.13;;;;;;;2.61;73.34;62265.72;5047562;28;20273;-77
2023/03/06 02:01:53;;;;;;;25.08;9.43;;;;;;;2.65;73.44;62271.84;5048738;28;20226;-79
2023/03/06 02:04:20;;;;;;;15.70;9.07;;;;;;;2.54;74.75;62263.56;5045971;28;20205;-78
2023/03/06 02:06:48;;;;;;;14.07;8.43;;;;;;;2.53;74.57;62260.03;5048135;28;20578;-78
2023/03/06 02:09:15;;;;;;;17.05;9.25;;;;;;;2.56;74.63;62265.09;5046324;28;20299;-79
2023/03/06 02:11:43;;;;;;;15.85;9.85;;;;;;;2.49;75.24;62252.88;5047671;28;20230;-79
2023/03/06 02:14:12;;;;;;;16.90;9.13;;;;;;;2.47;75.71;62251.34;5049329;28;20244;-79
2023/03/06 02:16:40;;;;;;;15.40;9.85;;;;;;;2.46;75.72;62247.31;5048036;28;20268;-79
2023/03/06 02:19:22;;;;;;;12.90;7.90;;;;;;;2.53;75.64;62259.50;5041573;28;20226;-78
2023/03/06 02:21:49;;;;;;;12.40;8.25;;;;;;;2.40;76.57;62246.16;5046767;28;20218;-78
2023/03/06 02:24:26;;;;;;;16.90;9.10;;;;;;;2.36;77.25;62240.56;5046266;28;20198;-78
2023/03/06 02:26:56;;;;;;;13.93;8.50;;;;;;;2.34;77.38;62238.00;5046946;28;20276;-78
2023/03/06 02:29:27;;;;;;;19.13;9.73;;;;;;;2.31;77.69;62234.94;5045530;28;20234;-78
2023/03/06 02:31:54;;;;;;;18.90;8.68;;;;;;;2.22;78.78;62225.69;5046680;28;20386;-79
2023/03/06 02:34:58;;;;;;;13.90;9.25;;;;;;;2.06;80.26;62209.25;5045605;28;20244;-79
2023/03/06 02:37:27;;;;;;;14.77;8.40;;;;;;;2.02;79.91;62208.16;5045689;28;20225;-79
2023/03/06 02:40:03;;;;;;;14.65;8.82;;;;;;;2.02;80.62;62203.16;5046222;28;20317;-78
2023/03/06 02:42:31;;;;;;;18.23;9.20;;;;;;;1.94;80.93;62197.44;5046898;28;20214;-79
2023/03/06 02:45:02;;;;;;;14.70;9.63;;;;;;;2.00;80.75;62205.59;5048084;28;20206;-77
2023/03/06 02:47:28;;;;;;;16.98;9.18;;;;;;;1.92;81.05;62195.38;5044897;28;20230;-78
2023/03/06 02:49:55;;;;;;;12.68;9.50;;;;;;;1.86;82.09;62186.72;5045051;28;20582;-79
2023/03/06 02:52:22;;;;;;;17.42;10.52;;;;;;;1.82;81.94;62184.59;5046150;28;20257;-78
2023/03/06 02:54:49;;;;;;;13.25;9.32;;;;;;;1.69;83.80;62171.28;5044785;28;20229;-78
2023/03/06 02:57:16;;;;;;;13.95;9.07;;;;;;;1.68;84.28;62175.78;5046315;28;20226;-78
2023/03/06 02:59:45;;;;;;;16.15;10.50;;;;;;;1.39;86.22;62143.50;5044015;28;20210;-79
2023/03/06 03:02:12;;;;;;;16.70;9.02;;;;;;;1.36;87.26;62137.91;5045800;28;20458;-79
2023/03/06 03:04:38;;;;;;;17.08;9.63;;;;;;;1.29;87.62;62127.72;5045963;28;20194;-79
2023/03/06 03:07:07;;;;;;;18.48;9.82;;;;;;;1.29;87.40;62132.72;5045196;28;20477;-80
2023/03/06 03:09:35;;;;;;;15.80;9.45;;;;;;;1.35;87.71;62134.38;5044566;28;20240;-79
2023/03/06 03:12:04;;;;;;;15.38;9.93;;;;;;;1.23;88.32;62126.56;5047448;28;20236;-79
2023/03/06 03:14:31;;;;;;;15.52;9.15;;;;;;;1.32;88.51;62135.78;5044932;28;20269;-78
2023/03/06 03:17:00;;;;;;;21.30;10.20;;;;;;;1.31;88.47;62134.78;5044080;28;20441;-78
2023/03/06 03:19:27;;;;;;;18.17;9.75;;;;;;;1.38;88.38;62144.97;5044720;28;20209;-79
2023/03/06 03:21:54;;;;;;;14.98;8.90;;;;;;;1.33;88.49;62139.84;5046397;28;20225;-79
2023/03/06 03:24:20;;;;;;;16.17;9.30;;;;;;;1.39;88.20;62140.47;5043526;28;20237;-79
2023/03/06 03:26:47;;;;;;;14.35;8.98;;;;;;;1.29;87.97;62137.75;5044390;28;20486;-79
2023/03/06 03:29:14;;;;;;;15.00;9.25;;;;;;;1.32;88.30;62133.81;5046580;28;20283;-78
2023/03/06 03:31:41;;;;;;;21.48;9.25;;;;;;;1.34;88.87;62135.88;5038906;28;20269;-79
2023/03/06 03:34:09;;;;;;;17.77;9.95;;;;;;;1.22;89.92;62126.06;5043637;28;20204;-79
2023/03/06 03:36:36;;;;;;;13.90;9.10;;;;;;;1.29;89.98;62133.25;5046961;28;20453;-79
2023/03/06 03:39:05;;;;;;;16.17;10.38;;;;;;;1.13;91.07;62116.81;5047689;28;20252;-80
2023/03/06 03:41:33;;;;;;;18.15;9.70;;;;;;;1.13;91.68;62117.34;5037576;28;20241;-80
2023/03/06 03:44:00;;;;;;;15.27;9.05;;;;;;;1.16;91.91;62117.91;5045352;28;20194;-79
2023/03/06 03:46:27;;;;;;;13.35;8.65;;;;;;;1.15;92.11;62124.41;5049853;28;20217;-79
2023/03/06 03:48:54;;;;;;;12.85;8.63;;;;;;;1.15;92.60;62121.91;5050876;28;20229;-79
2023/03/06 03:51:23;;;;;;;11.25;8.80;;;;;;;1.17;92.33;62118.94;5048134;28;20276;-81
2023/03/06 03:53:50;;;;;;;15.13;9.18;;;;;;;1.07;93.26;62108.66;5051983;28;20198;-81
2023/03/06 03:56:18;;;;;;;15.07;9.52;;;;;;;0.90;95.07;62086.22;5049693;28;20233;-80
2023/03/06 03:58:44;;;;;;;13.73;8.85;;;;;;;0.70;96.57;62075.22;5045115;28;20252;-79
2023/03/06 04:01:12;;;;;;;14.50;9.90;;;;;;;0.80;96.19;62080.47;5036021;28;20215;-79
2023/03/06 04:03:38;;;;;;;15.07;8.30;;;;;;;0.87;96.00;62085.66;5030252;28;20207;-77
2023/03/06 04:06:06;;;;;;;14.43;9.15;;;;;;;0.86;96.58;62087.13;5041085;28;20269;-78
2023/03/06 04:08:35;;;;;;;17.33;9.98;;;;;;;0.89;96.13;62092.72;5045748;28;20238;-78
2023/03/06 04:11:02;;;;;;;12.82;8.50;;;;;;;0.82;96.65;62085.53;5047618;28;20201;-78
2023/03/06 04:13:29;;;;;;;14.38;9.05;;;;;;;0.76;96.66;62079.38;5048880;28;20198;-77
2023/03/06 04:15:58;;;;;;;16.50;9.50;;;;;;;0.75;97.12;62075.34;5047153;28;20529;-78
2023/03/06 04:18:25;;;;;;;12.82;9.63;;;;;;;0.81;97.21;62082.00;5043426;28;20225;-78
2023/03/06 04:20:53;;;;;;;18.73;9.60;;;;;;;0.81;97.12;62079.50;5034315;28;20198;-78
2023/03/06 04:23:21;;;;;;;17.30;9.35;;;;;;;0.90;96.95;62093.75;5047829;28;20220;-80
2023/03/06 04:25:50;;;;;;;16.75;10.52;;;;;;;0.94;96.09;62094.81;5047507;28;20257;-79
2023/03/06 04:28:17;;;;;;;16.40;9.23;;;;;;;0.96;95.02;62102.41;5047453;28;20253;-78
2023/03/06 04:30:44;;;;;;;15.95;9.68;;;;;;;0.89;95.38;62092.72;5046376;28;20198;-79
2023/03/06 04:33:11;;;;;;;12.73;8.95;;;;;;;0.96;95.57;62099.38;5045843;28;20221;-79
2023/03/06 04:35:38;;;;;;;15.40;9.95;;;;;;;1.07;95.34;62108.66;5046770;28;20205;-78
2023/03/06 04:38:05;;;;;;;16.63;9.15;;;;;;;0.99;95.16;62099.94;5051266;28;20554;-78
2023/03/06 04:40:35;;;;;;;14.02;10.00;;;;;;;1.11;95.45;62109.75;5048892;28;20205;-79
2023/03/06 04:43:04;;;;;;;17.10;9.93;;;;;;;1.07;96.01;62105.66;5041600;28;20226;-78
2023/03/06 04:45:32;;;;;;;18.50;10.02;;;;;;;1.15;96.30;62116.88;5029491;28;20538;-78
2023/03/06 04:47:59;;;;;;;15.73;9.43;;;;;;;1.28;96.02;62131.72;5029750;28;20210;-78
2023/03/06 04:50:31;;;;;;;14.38;8.43;;;;;;;1.38;95.79;62136.94;5038792;28;20288;-78
2023/03/06 04:52:58;;;;;;;13.82;9.38;;;;;;;1.41;95.98;62142.53;5046519;28;20526;-78
2023/03/06 04:55:26;;;;;;;13.75;9.30;;;;;;;1.51;95.58;62155.81;5050167;28;20201;-78
2023/03/06 04:57:53;;;;;;;18.45;9.50;;;;;;;1.52;95.65;62156.34;5047601;28;20217;-79
2023/03/06 05:00:28;;;;;;;16.33;9.38;;;;;;;1.53;95.26;62155.38;5045184;28;20248;-80
2023/03/06 05:02:55;;;;;;;14.88;9.80;;;;;;;1.52;95.14;62154.31;5028117;28;20601;-77
2023/03/06 05:05:25;;;;;;;15.15;9.40;;;;;;;1.42;96.65;62143.56;5033507;28;20197;-80
2023/03/06 05:07:52;;;;;;;14.40;9.30;;;;;;;1.65;96.99;62170.19;5046397;28;20394;-78
2023/03/06 05:10:19;;;;;;;15.60;9.77;;;;;;;1.69;95.77;62168.75;5048322;28;20472;-78
2023/03/06 05:12:46;;;;;;;17.38;9.50;;;;;;;1.82;95.11;62185.13;5051280;28;20218;-80
2023/03/06 05:15:14;;;;;;;15.40;9.57;;;;;;;1.87;94.46;62187.22;5049099;28;20202;-79
2023/03/06 05:17:42;;;;;;;19.65;10.65;;;;;;;1.73;94.89;62175.88;5048076;28;20225;-79
2023/03/06 05:20:11;;;;;;;15.70;9.77;;;;;;;1.71;94.96;62175.84;5049596;28;20210;-79
2023/03/06 05:22:38;;;;;;;19.15;10.73;;;;;;;1.76;94.50;62175.94;5047623;28;20224;-79
2023/03/06 05:25:06;;;;;;;17.77;10.45;;;;;;;1.84;94.85;62186.66;5040289;28;20218;-78
2023/03/06 05:27:34;;;;;;;14.07;8.70;;;;;;;1.72;95.65;62174.88;5048534;28;20289;-78
2023/03/06 05:30:01;;;;;;;14.15;9.90;;;;;;;1.85;95.13;62193.22;5050052;28;20276;-78
2023/03/06 05:32:28;;;;;;;23.15;11.20;;;;;;;1.96;94.41;62202.00;5046163;28;20226;-79
2023/03/06 05:34:57;;;;;;;14.52;10.15;;;;;;;2.08;92.54;62211.31;5046848;28;20204;-79
2023/03/06 05:37:25;;;;;;;15.65;10.93;;;;;;;2.05;92.10;62208.72;5046990;28;20282;-80
2023/03/06 05:39:52;;;;;;;21.60;10.40;;;;;;;2.12;90.74;62213.41;5046901;28;20210;-78
2023/03/06 05:42:18;;;;;;;16.63;10.40;;;;;;;2.11;90.37;62217.41;5046191;28;20222;-78
2023/03/06 05:44:45;;;;;;;15.00;10.68;;;;;;;1.96;90.95;62197.00;5048465;28;20204;-79
2023/03/06 05:47:13;;;;;;;16.77;10.05;;;;;;;1.85;91.05;62188.19;5050615;28;20225;-79
2023/03/06 05:49:41;;;;;;;18.88;10.73;;;;;;;1.96;91.01;62204.00;5044788;28;20301;-79
2023/03/06 05:52:12;;;;;;;16.85;9.45;;;;;;;1.88;91.56;62190.78;5043503;28;20238;-82
2023/03/06 05:54:39;;;;;;;19.40;10.45;;;;;;;1.93;91.63;62198.41;5046761;28;20213;-78
2023/03/06 05:57:06;;;;;;;14.10;9.75;;;;;;;2.04;91.58;62202.69;5048240;28;20219;-78
2023/03/06 05:59:34;;;;;;;18.77;10.50;;;;;;;2.15;91.70;62223.50;5044832;28;20465;-78
2023/03/06 06:02:04;;;;;;;16.17;10.73;;;;;;;2.21;91.57;62222.66;5050206;28;20209;-81
2023/03/06 06:04:31;;;;;;;15.77;10.52;;;;;;;2.35;91.01;62239.53;5048880;28;20225;-79
2023/03/06 06:06:59;;;;;;;13.85;9.52;;;;;;;2.48;89.79;62252.38;5049101;28;20214;-79
2023/03/06 06:09:28;;;;;;;20.08;10.32;;;;;;;2.59;88.92;62263.69;5043568;28;20229;-80
2023/03/06 06:11:57;;;;;;;19.27;10.93;;;;;;;2.78;87.07;62280.69;5045692;28;20222;-80
2023/03/06 06:14:24;;;;;;;17.85;11.63;;;;;;;2.87;86.01;62286.91;5048085;28;20244;-78
2023/03/06 06:16:52;;;;;;;16.48;10.90;;;;;;;2.81;85.22;62286.28;5046179;28;20485;-79
2023/03/06 06:19:19;;;;;;;20.65;11.77;;;;;;;2.92;84.37;62297.59;5048175;28;20216;-79
2023/03/06 06:21:47;;;;;;;19.40;11.52;;;;;;;2.95;84.06;62300.16;5047563;28;20340;-79
2023/03/06 06:24:14;;;;;;;24.90;11.27;;;;;;;2.97;83.22;62300.22;5047163;28;20204;-79
2023/03/06 06:26:43;;;;;;;19.65;11.38;;;;;;;3.04;82.97;62309.91;5044021;28;20245;-79
2023/03/06 06:29:11;;;;;;;21.50;12.77;;;;;;;3.07;81.86;62315.50;5049198;28;20226;-80
2023/03/06 06:31:39;;;;;;;21.73;13.05;;;;;;;3.13;81.79;62319.16;5048186;28;20308;-83
2023/03/06 06:34:07;;;;;;;18.60;11.05;;;;;;;3.17;80.91;62323.28;5044459;28;20510;-80
2023/03/06 06:36:34;;;;;;;18.83;12.65;;;;;;;3.00;81.25;62305.31;5042669;28;20421;-81
2023/03/06 06:39:01;;;;;;;20.00;11.50;;;;;;;2.99;82.30;62307.28;5048394;28;20659;-81
2023/03/06 06:41:29;;;;;;;13.88;9.90;;;;;;;2.97;82.29;62307.25;5044688;28;20238;-82
2023/03/06 06:43:58;;;;;;;22.55;12.57;;;;;;;3.11;82.88;62316.59;5048491;28;20206;-81
2023/03/06 06:46:25;;;;;;;16.27;11.63;;;;;;;3.21;81.75;62326.88;5049594;28;20218;-82
2023/03/06 06:48:53;;;;;;;17.38;10.68;;;;;;;3.02;80.98;62310.38;5047608;28;20272;-82
2023/03/06 06:51:21;;;;;;;17.58;10.30;;;;;;;2.99;81.83;62304.78;5043293;28;20229;-80
2023/03/06 06:53:48;;;;;;;13.25;10.38;;;;;;;3.22;81.31;62328.44;5045872;28;20212;-80
2023/03/06 06:56:15;;;;;;;17.45;11.18;;;;;;;3.22;79.58;62328.44;5049245;28;20245;-81
2023/03/06 06:58:42;;;;;;;15.52;10.18;;;;;;;3.26;78.15;62337.56;5045625;28;20206;-81
2023/03/06 07:01:13;;;;;;;14.45;9.15;;;;;;;3.18;79.61;62323.78;5041609;28;20271;-81
2023/03/06 07:03:40;;;;;;;17.38;10.77;;;;;;;3.36;78.93;62340.31;5041752;28;20252;-81
2023/03/06 07:06:08;;;;;;;19.25;10.38;;;;;;;3.59;77.85;62365.94;5042921;28;20253;-80
2023/03/06 07:08:35;;;;;;;17.35;11.52;;;;;;;3.49;76.64;62358.69;5047034;28;20237;-81
2023/03/06 07:11:06;;;;;;;20.15;11.85;;;;;;;3.65;76.78;62369.09;5043353;28;20261;-81
2023/03/06 07:13:34;;;;;;;16.08;10.88;;;;;;;3.54;74.78;62366.34;5045398;28;20208;-81
2023/03/06 07:16:01;;;;;;;17.90;11.18;;;;;;;3.62;77.34;62373.56;5047993;28;20210;-81
2023/03/06 07:18:30;;;;;;;16.25;10.90;;;;;;;3.73;74.89;62379.84;5047288;28;20197;-80
2023/03/06 07:20:57;;;;;;;16.73;10.68;;;;;;;3.82;75.34;62391.59;5042192;28;20209;-80
2023/03/06 07:23:27;;;;;;;14.43;10.93;;;;;;;3.71;73.26;62380.31;5047224;28;20217;-82
2023/03/06 07:25:55;;;;;;;20.85;10.57;;;;;;;3.76;72.82;62385.44;5046658;28;20224;-80
2023/03/06 07:28:22;;;;;;;13.75;10.05;;;;;;;3.68;74.10;62372.16;5028029;28;20198;-81
2023/03/06 07:30:49;;;;;;;13.20;9.90;;;;;;;3.70;72.81;62374.22;5043557;28;20308;-79
2023/03/06 07:33:18;;;;;;;17.45;9.80;;;;;;;4.04;72.82;62414.25;5048792;28;20194;-81
2023/03/06 07:35:46;;;;;;;15.00;10.18;;;;;;;4.24;72.39;62432.81;5049341;28;20486;-80
2023/03/06 07:38:13;;;;;;;15.70;10.30;;;;;;;4.34;70.38;62442.59;5046866;28;20265;-81
2023/03/06 07:40:41;;;;;;;16.02;10.35;;;;;;;4.04;70.28;62414.75;5039102;28;20199;-79
2023/03/06 07:43:08;;;;;;;11.98;10.05;;;;;;;4.13;70.22;62424.00;5030336;28;20418;-82
2023/03/06 07:45:35;;;;;;;14.05;10.73;;;;;;;3.87;71.95;62394.22;5046601;28;20258;-81
2023/03/06 07:48:02;;;;;;;21.83;12.90;;;;;;;4.03;72.19;62413.22;5045547;28;20309;-79
2023/03/06 07:50:29;;;;;;;18.90;12.32;;;;;;;4.18;69.97;62428.63;5047549;28;20546;-78
2023/03/06 07:52:58;;;;;;;17.48;12.23;;;;;;;4.42;70.84;62450.81;5046553;28;20305;-79
2023/03/06 07:55:24;;;;;;;19.92;11.75;;;;;;;4.46;68.33;62459.97;5045410;28;20208;-78
2023/03/06 07:57:51;;;;;;;18.58;11.57;;;;;;;4.48;67.48;62460.03;5045736;28;20218;-79
2023/03/06 08:00:19;;;;;;;14.40;10.98;;;;;;;4.61;67.99;62472.88;5047211;28;20318;-79
2023/03/06 08:02:48;;;;;;;17.63;11.10;;;;;;;4.82;67.20;62491.97;5046978;28;20235;-79
2023/03/06 08:05:16;;;;;;;20.98;11.27;;;;;;;4.81;68.00;62493.47;5043832;28;20506;-78
2023/03/06 08:07:45;;;;;;;21.85;11.05;;;;;;;4.81;68.94;62493.47;5042446;28;20222;-78
2023/03/06 08:10:15;;;;;;;17.15;10.40;;;;;;;4.88;67.94;62500.16;5045240;28;20261;-78
2023/03/06 08:12:42;;;;;;;19.88;11.75;;;;;;;4.96;65.73;62510.94;5044719;28;20229;-78
2023/03/06 08:15:11;;;;;;;18.13;12.40;;;;;;;5.00;66.73;62515.06;5047643;28;20236;-79
2023/03/06 08:17:38;;;;;;;16.73;11.23;;;;;;;5.18;65.93;62529.06;5045962;28;20288;-79
2023/03/06 08:20:06;;;;;;;26.85;12.80;;;;;;;5.26;65.90;62536.78;5044014;28;20499;-79
2023/03/06 08:22:34;;;;;;;20.70;12.45;;;;;;;5.57;63.66;62573.78;5046374;28;20214;-78
2023/03/06 08:25:01;;;;;;;16.10;11.30;;;;;;;5.55;63.47;62569.19;5044300;28;20199;-81
2023/03/06 08:27:31;;;;;;;19.65;11.60;;;;;;;5.69;63.62;62584.09;5046762;28;20252;-78
2023/03/06 08:29:58;;;;;;;20.13;10.73;;;;;;;5.54;62.56;62565.63;5044467;28;20301;-80
2023/03/06 08:32:25;;;;;;;20.55;12.32;;;;;;;5.52;61.98;62568.63;5047692;28;20241;-78
2023/03/06 08:34:52;;;;;;;17.55;10.35;;;;;;;5.54;62.83;62568.16;5049105;28;20233;-77
2023/03/06 08:37:20;;;;;;;19.77;11.75;;;;;;;5.78;64.17;62590.84;5048554;28;20256;-78
2023/03/06 08:39:46;;;;;;;23.75;12.02;;;;;;;5.85;62.38;62600.63;5047091;28;20202;-80
2023/03/06 08:42:14;;;;;;;24.63;9.95;;;;;;;5.96;61.14;62611.44;5049591;28;20218;-78
2023/03/06 08:44:43;;;;;;;25.52;12.15;;;;;;;6.10;59.62;62628.41;5047929;28;20190;-79
2023/03/06 08:47:10;;;;;;;18.60;11.23;;;;;;;6.31;58.71;62650.06;5045655;28;20272;-79
2023/03/06 08:49:38;;;;;;;15.73;10.57;;;;;;;6.30;58.16;62643.47;5048922;28;20190;-79
2023/03/06 08:52:06;;;;;;;17.48;10.43;;;;;;;6.50;58.31;62666.59;5048884;28;20221;-77
2023/03/06 08:54:34;;;;;;;20.58;11.43;;;;;;;6.64;57.91;62681.53;5051363;28;20242;-78
2023/03/06 08:57:01;;;;;;;15.00;10.68;;;;;;;6.71;57.68;62686.22;5048996;28;20277;-79
2023/03/06 08:59:28;;;;;;;19.52;10.73;;;;;;;6.91;57.80;62709.41;5048997;28;20216;-80
2023/03/06 09:01:57;;;;;;;18.02;11.48;;;;;;;7.03;57.61;62724.31;5047764;28;20225;-78
2023/03/06 09:04:24;;;;;;;17.67;10.85;;;;;;;6.99;56.01;62717.13;5049300;28;20261;-78
2023/03/06 09:06:51;;;;;;;16.83;11.38;;;;;;;6.98;56.23;62716.63;5047110;28;20296;-78
2023/03/06 09:09:19;;;;;;;20.60;11.18;;;;;;;7.37;56.11;62756.34;5044398;28;20210;-79
2023/03/06 09:11:46;;;;;;;18.70;11.60;;;;;;;7.21;56.05;62741.84;5041107;28;20244;-78
2023/03/06 09:14:13;;;;;;;18.50;10.30;;;;;;;7.36;55.14;62752.78;5052165;28;20202;-78
2023/03/06 09:16:40;;;;;;;21.15;12.00;;;;;;;7.39;54.86;62760.41;5049483;28;20553;-78
2023/03/06 09:19:10;;;;;;;14.00;10.95;;;;;;;7.54;54.38;62778.94;5047799;28;20519;-79
2023/03/06 09:21:37;;;;;;;16.65;11.15;;;;;;;7.45;53.90;62762.06;5041228;28;20234;-79
2023/03/06 09:24:05;;;;;;;16.05;10.65;;;;;;;7.59;53.81;62779.03;5047508;28;20200;-79
2023/03/06 09:26:32;;;;;;;16.17;10.57;;;;;;;7.59;52.90;62781.56;5048368;28;20233;-78
2023/03/06 09:28:59;;;;;;;18.48;11.82;;;;;;;7.73;53.11;62793.50;5049640;28;20198;-79
2023/03/06 09:31:27;;;;;;;17.40;10.65;;;;;;;7.65;53.34;62784.72;5048801;28;20229;-79
2023/03/06 09:33:53;;;;;;;18.05;10.45;;;;;;;7.86;53.07;62806.94;5048500;28;20209;-78
2023/03/06 09:36:22;;;;;;;13.98;9.93;;;;;;;7.94;52.89;62812.66;5047727;28;20233;-78
2023/03/06 09:38:50;;;;;;;16.45;10.52;;;;;;;8.14;53.52;62835.31;5047884;28;20201;-79
2023/03/06 09:41:36;;;;;;;16.95;9.48;;;;;;;8.27;51.94;62846.22;5048457;28;20222;-79
2023/03/06 09:44:07;;;;;;;14.18;10.07;;;;;;;8.49;51.78;62870.97;5027180;28;20482;-78
2023/03/06 09:46:49;;;;;;;15.95;9.57;;;;;;;8.50;51.17;62867.44;5029169;28;20229;-79
2023/03/06 09:49:37;;;;;;;16.05;10.20;;;;;;;8.53;50.74;62872.56;5029002;28;20198;-79
2023/03/06 09:52:31;;;;;;;18.30;11.05;;;;;;;8.52;50.71;62876.59;5038409;28;20593;-79
2023/03/06 09:55:02;;;;;;;15.60;9.52;;;;;;;8.53;51.04;62875.09;5048562;28;20339;-79
2023/03/06 09:57:34;;;;;;;15.05;9.45;;;;;;;8.60;50.45;62882.84;5042669;28;20241;-79
2023/03/06 10:00:04;;;;;;;14.63;9.43;;;;;;;8.71;49.79;62891.16;5046389;28;20517;-78
2023/03/06 10:02:37;;;;;;;14.50;9.60;;;;;;;8.88;49.89;62914.31;5037622;28;20222;-79
2023/03/06 10:05:08;;;;;;;14.07;9.63;;;;;;;8.93;50.47;62914.41;5027396;28;20410;-79
2023/03/06 10:07:45;;;;;;;17.63;10.50;;;;;;;9.02;49.47;62925.75;5026872;28;20245;-78
2023/03/06 10:10:18;;;;;;;14.75;9.80;;;;;;;9.03;49.23;62921.69;5038416;28;20566;-78
2023/03/06 10:12:50;;;;;;;16.88;10.13;;;;;;;9.05;49.46;62928.84;5047279;28;20237;-79
2023/03/06 10:15:22;;;;;;;13.82;9.85;;;;;;;9.28;49.88;62953.13;5030765;28;20218;-77
2023/03/06 10:17:49;;;;;;;13.55;9.43;;;;;;;9.33;49.79;62957.78;5046372;28;20224;-79
2023/03/06 10:20:21;;;;;;;16.80;10.75;;;;;;;9.60;50.58;62985.69;5047972;28;20216;-78
2023/03/06 10:23:09;;;;;;;17.05;11.10;;;;;;;9.82;48.71;63005.41;5044528;28;20222;-78
2023/03/06 10:25:42;;;;;;;13.60;9.50;;;;;;;9.88;48.63;63017.19;5042923;28;20229;-79
2023/03/06 10:28:16;;;;;;;13.35;9.55;;;;;;;9.60;47.28;62982.63;5030955;28;20253;-80
2023/03/06 10:30:52;;;;;;;13.98;9.23;;;;;;;9.57;47.73;62987.69;5027786;28;20240;-78
2023/03/06 10:33:27;;;;;;;17.63;9.90;;;;;;;9.60;48.23;62982.63;5042171;28;20225;-78
2023/03/06 10:35:55;;;;;;;16.55;9.60;;;;;;;9.75;48.56;63003.25;5040412;28;20202;-78
2023/03/06 10:38:25;;;;;;;15.45;9.55;;;;;;;10.08;48.65;63034.81;5041426;28;20240;-79
2023/03/06 10:41:05;;;;;;;13.52;9.55;;;;;;;10.36;47.68;63064.34;5044656;28;20404;-78
2023/03/06 10:43:33;;;;;;;13.52;7.88;;;;;;;10.42;46.22;63067.47;5044722;28;20194;-79
2023/03/06 10:46:00;;;;;;;9.18;6.97;;;;;;;10.26;45.90;63053.47;5035599;28;20510;-77
2023/03/06 10:48:29;;;;;;;14.88;7.53;;;;;;;10.40;46.31;63071.03;5043329;28;20205;-78
2023/03/06 10:51:15;;;;;;;8.40;7.18;;;;;;;10.77;45.82;63105.75;5041219;28;20237;-77
2023/03/06 10:53:53;;;;;;;10.60;7.95;;;;;;;10.85;45.63;63114.53;5045056;28;20209;-80
2023/03/06 10:56:31;;;;;;;10.32;7.88;;;;;;;11.01;45.43;63128.03;5044549;28;20216;-78
2023/03/06 10:59:12;;;;;;;14.65;8.43;;;;;;;11.03;46.34;63135.19;5044425;28;20198;-80
2023/03/06 11:01:41;;;;;;;12.88;8.65;;;;;;;11.15;46.07;63143.03;5047820;28;20241;-80
2023/03/06 11:04:16;;;;;;;13.48;8.45;;;;;;;11.15;45.20;63143.03;5045537;28;20210;-78
2023/03/06 11:06:44;;;;;;;13.07;7.30;;;;;;;11.57;46.32;63183.47;5042431;28;20223;-77
2023/03/06 11:09:21;;;;;;;13.38;8.15;;;;;;;11.56;45.49;63190.09;5045197;28;20212;-78
2023/03/06 11:11:48;;;;;;;6.28;5.68;;;;;;;11.96;42.58;63228.50;5043791;28;20480;-81
2023/03/06 11:14:17;;;;;;;7.20;5.60;;;;;;;12.24;41.38;63258.00;5045791;28;20240;-79
2023/03/06 11:16:52;;;;;;;9.10;5.68;;;;;;;12.29;41.06;63262.66;5047297;28;20221;-79
2023/03/06 11:19:21;;;;;;;6.50;4.80;;;;;;;12.55;39.97;63289.63;5048136;28;20407;-77
2023/03/06 11:22:00;;;;;;;5.85;5.32;;;;;;;12.71;41.43;63309.31;5044124;28;20526;-80
2023/03/06 11:24:35;;;;;;;5.95;5.20;;;;;;;12.60;40.04;63297.88;5046125;28;20487;-78
2023/03/06 11:27:18;;;;;;;5.93;5.25;;;;;;;12.47;40.14;63283.91;5025724;28;20252;-80
2023/03/06 11:29:49;;;;;;;3.67;3.20;;;;;;;11.92;37.49;63219.75;5025764;28;20205;-77
2023/03/06 11:32:21;;;;;;;4.32;3.92;;;;;;;11.62;39.14;63196.31;5045296;28;20328;-77
2023/03/06 11:34:53;;;;;;;4.28;3.90;;;;;;;11.26;39.85;63157.00;5038432;28;20194;-80
2023/03/06 11:37:29;;;;;;;4.78;4.25;;;;;;;11.39;40.75;63170.44;5047871;28;20233;-77